Harrisville, NY (13648)

2:39 AM EST on February 11, 2016 (GMT -0500)
Bullhead Pond | | Change Station
CLOSE
Current Station
Personal Weather Station
Location: Harrisville, NY
Elevation: 866 ft
Nearby Weather Stations

Elev 866 ft 44.21 °N, 75.28 °W | Updated 10 seconds ago

Mostly Cloudy
Mostly Cloudy
28.8 °F
Feels Like 29 °F
N
0.0
Wind Variable Wind from WSW
Gusts 0.0 mph

Today
High -- | Low -- °F
--% Chance of Precip.
Yesterday
High -- | Low -- °F
Precip. -- in
Pressure 29.69 in
Visibility 10.0 miles
Clouds Few 1000 ft
Windchill 29 °F
Dew Point 18 °F
Humidity 64%
Rainfall 0.00 in
Snow Depth Not available.
7:07 AM 5:24 PM
Waxing Crescent, 10% visible
SPECI KGTB 110711Z AUTO 29005KT 10SM FEW010 M09/M11 A2969 RMK AO2 SNE11
Pressure 29.69 in
Visibility 10.0 miles
Clouds Few 1000 ft
Windchill 29 °F
Dew Point 18 °F
Humidity 64%
Rainfall 0.00 in
Snow Depth Not available.
7:07 AM 5:24 PM
Waxing Crescent, 10% visible
SPECI KGTB 110711Z AUTO 29005KT 10SM FEW010 M09/M11 A2969 RMK AO2 SNE11

10-Day Weather Forecast

Almanac

Astronomy

Feb. 11, 2016 Rise Set
Actual Time
Civil Twilight
Nautical Twilight
Astronomical Twilight
Moon
Length of Visible Light
Length of Day
Tomorrow will be .
, % of the Moon is Illuminated

Today's Extremes

State Highs State Lows

Community

WunderPhotos

Upload Photos

1,892,030 photos uploaded!

WunderBlog® & News

Nearby

Air Quality

  Air Quality AQ Index Pollutant
Not available.

Snow Depth

Station Depth Elevation

Earthquake Activity

City Distance Mag. Time & Date
Minimum magnitude displayed is 2.5.

Coastal Water Temperatures

Place Temperature

Stations

Nearby Weather Stations

Station Location Temp. Windchill Dew Point Humidity Wind Precip. Elev Updated Type
                   

Watches & Warnings

There are currently no watches in effect.